Hovedside
METAR-TAF:

METAR-TAF

Lufthavner :

Helsingborg, Sverige

Ängelholm-Helsingborg lufthavn

breddegrad: 56-17-46N, lengdegrad: 012-50-50E, høyde over havet: 21 m

Gjeldene værobservasjon

Denne rapporten ble laget for 39 minutter siden, klokken 09:50 UTC
Vind 10 kt fra Vest-sørvest
Temperatur 16°C
Luftfuktighet 72%
Trykk 1001 hPa
Sikt 10 km eller mer
Spredte skyer i en høyde av 4100 ft
Brutte skyer i en høyde av 8800 ft
Brutte skyer i en høyde av 11000 ft

METAR: ESTA 250950Z 25010KT 9999 SCT041 BKN088 BKN110 16/11 Q1001

Tid: 12:29 (10:29 UTC)


TAF: fraværende

Værobservasjoner og værvarsel for over 4000 flyplasser (METAR- og TAF-rapporter).

Tilgjengelige stasjoner er representert av de røde og gule prikkene på kartet.

Hold musepekeren over prikken for å se navnet på stasjonen.

Klikk så for å se værobservasjoner og -varsler.

For å forandre kartet kan du klikke på den grønne knappen med svart kryss for å zoome inn, på den grønne knappen med strek for å zoome ut, eller på de grønne pilene for å se tilstøtende kart.


METAR-TAF: